createdAt,value
2017-10-31T00:01:26.336Z,12.60
2017-10-31T00:03:53.824Z,27.57
2017-10-31T00:06:21.287Z,10.33
2017-10-31T00:08:48.754Z,13.83
2017-10-31T00:11:16.979Z,13.60
2017-10-31T00:13:44.453Z,11.10
2017-10-31T00:16:11.922Z,10.37
2017-10-31T00:18:39.478Z,14.10
2017-10-31T00:24:00.126Z,6.30
2017-10-31T00:26:27.752Z,16.07
2017-10-31T00:28:55.235Z,19.23
2017-10-31T00:31:22.743Z,5.67
2017-10-31T00:33:50.247Z,8.30
2017-10-31T00:36:17.983Z,12.90
2017-10-31T00:38:45.449Z,8.27
2017-10-31T00:41:12.934Z,9.90
2017-10-31T00:43:40.403Z,8.67
2017-10-31T00:46:08.668Z,10.73
2017-10-31T00:48:36.128Z,8.50
2017-10-31T00:51:04.372Z,14.43
2017-10-31T00:53:31.846Z,12.10
2017-10-31T00:55:59.319Z,6.57
2017-10-31T00:58:26.840Z,6.23
2017-10-31T01:00:54.321Z,10.20
2017-10-31T01:03:21.803Z,27.20
2017-10-31T01:05:50.038Z,12.33
2017-10-31T01:08:17.536Z,7.90
2017-10-31T01:10:45.003Z,13.50
2017-10-31T01:13:13.267Z,8.53
2017-10-31T01:15:40.742Z,7.23
2017-10-31T01:18:08.207Z,8.67
2017-10-31T01:20:36.456Z,9.77
2017-10-31T01:23:04.017Z,5.50
2017-10-31T01:25:31.487Z,5.17
2017-10-31T01:27:58.943Z,8.20
2017-10-31T01:30:26.437Z,12.13
2017-10-31T01:32:53.894Z,6.47
2017-10-31T01:35:21.782Z,10.73
2017-10-31T01:37:49.276Z,10.50
2017-10-31T01:40:16.735Z,5.60
2017-10-31T01:42:44.211Z,5.90
2017-10-31T01:45:12.439Z,6.97
2017-10-31T01:47:39.913Z,16.50
2017-10-31T01:50:07.376Z,8.60
2017-10-31T01:52:34.941Z,12.43
2017-10-31T01:55:02.411Z,8.37
2017-10-31T01:57:30.651Z,10.97
2017-10-31T01:59:58.113Z,7.53
2017-10-31T02:02:25.575Z,8.57
2017-10-31T02:04:53.034Z,6.77
2017-10-31T02:07:20.504Z,6.40
2017-10-31T02:09:47.967Z,7.23
2017-10-31T02:12:15.531Z,8.30
2017-10-31T02:14:43.086Z,5.30
2017-10-31T02:17:10.657Z,15.30
2017-10-31T02:19:38.131Z,8.07
2017-10-31T02:22:06.383Z,11.27
2017-10-31T02:24:33.883Z,7.27
2017-10-31T02:27:02.219Z,6.87
2017-10-31T02:29:29.685Z,10.40
2017-10-31T02:31:57.244Z,8.00
2017-10-31T02:34:24.707Z,11.07
2017-10-31T02:36:52.182Z,6.23
2017-10-31T02:39:20.415Z,7.67
2017-10-31T02:41:48.674Z,3.70
2017-10-31T02:44:16.152Z,4.87
2017-10-31T02:46:43.607Z,8.13
2017-10-31T02:49:11.077Z,7.33
2017-10-31T02:51:38.535Z,3.73
2017-10-31T02:54:06.095Z,6.93
2017-10-31T02:56:33.558Z,5.37
2017-10-31T02:59:01.036Z,8.83
2017-10-31T03:01:29.262Z,10.40
2017-10-31T03:03:56.729Z,7.93
2017-10-31T03:06:24.218Z,7.97
2017-10-31T03:08:51.688Z,5.43
2017-10-31T03:11:19.928Z,8.83
2017-10-31T03:13:47.401Z,6.67
2017-10-31T03:16:14.875Z,6.60
2017-10-31T03:18:42.340Z,5.87
2017-10-31T03:21:10.559Z,3.80
2017-10-31T03:23:38.033Z,6.13
2017-10-31T03:26:05.492Z,6.07
2017-10-31T03:28:32.955Z,10.00
2017-10-31T03:31:00.437Z,6.57
2017-10-31T03:33:27.895Z,7.00
2017-10-31T03:35:55.367Z,7.00
2017-10-31T03:38:23.687Z,12.27
2017-10-31T03:40:51.179Z,8.93
2017-10-31T03:43:18.656Z,6.37
2017-10-31T03:45:46.887Z,10.07
2017-10-31T03:48:14.355Z,5.80
2017-10-31T03:50:41.827Z,7.97
2017-10-31T03:53:09.289Z,4.20
2017-10-31T03:55:36.763Z,10.50
2017-10-31T03:58:05.028Z,11.40
2017-10-31T04:00:32.485Z,7.50
2017-10-31T04:02:59.952Z,8.23
2017-10-31T04:05:27.502Z,5.50
2017-10-31T04:07:55.059Z,7.73
2017-10-31T04:10:22.540Z,5.63
2017-10-31T04:12:50.767Z,5.00
2017-10-31T04:15:18.257Z,3.57
2017-10-31T04:17:45.712Z,8.53
2017-10-31T04:20:13.283Z,5.53
2017-10-31T04:22:40.737Z,5.40
2017-10-31T04:25:08.241Z,11.27
2017-10-31T04:27:35.754Z,9.13
2017-10-31T04:30:03.320Z,6.17
2017-10-31T04:32:30.869Z,8.00
2017-10-31T04:34:58.322Z,6.33
2017-10-31T04:37:25.812Z,8.73
2017-10-31T04:39:54.064Z,7.50
2017-10-31T04:42:22.295Z,5.10
2017-10-31T04:44:49.793Z,9.13
2017-10-31T04:47:17.268Z,7.10
2017-10-31T04:49:44.752Z,6.23
2017-10-31T04:52:12.275Z,7.97
2017-10-31T04:54:39.847Z,5.43
2017-10-31T04:57:07.310Z,10.40
2017-10-31T04:59:35.535Z,7.23
2017-10-31T05:02:03.007Z,12.67
2017-10-31T05:04:30.615Z,8.83
2017-10-31T05:06:58.868Z,10.50
2017-10-31T05:09:26.336Z,9.63
2017-10-31T05:11:53.795Z,9.20
2017-10-31T05:14:22.015Z,6.30
2017-10-31T05:16:49.497Z,6.83
2017-10-31T05:19:16.973Z,8.43
2017-10-31T05:21:44.434Z,10.27
2017-10-31T05:24:11.897Z,7.73
2017-10-31T05:26:39.371Z,5.77
2017-10-31T05:29:07.596Z,8.17
2017-10-31T05:31:35.108Z,5.80
2017-10-31T05:34:03.331Z,8.20
2017-10-31T05:36:30.799Z,6.70
2017-10-31T05:38:58.272Z,5.83
2017-10-31T05:41:25.736Z,8.73
2017-10-31T05:43:53.206Z,9.83
2017-10-31T05:46:20.743Z,7.27
2017-10-31T05:48:48.221Z,6.20
2017-10-31T05:51:16.444Z,5.07
2017-10-31T05:53:43.923Z,8.03
2017-10-31T05:56:11.385Z,7.23
2017-10-31T05:58:38.863Z,7.70
2017-10-31T06:01:06.320Z,8.17
2017-10-31T06:03:34.591Z,6.47
2017-10-31T06:06:02.076Z,12.33
2017-10-31T06:08:29.601Z,17.13
2017-10-31T06:10:57.064Z,12.60
2017-10-31T06:13:24.553Z,6.53
2017-10-31T06:15:52.026Z,4.60
2017-10-31T06:18:19.556Z,5.67
2017-10-31T06:20:47.015Z,7.17
2017-10-31T06:23:20.847Z,8.33
2017-10-31T06:26:09.175Z,4.77
2017-10-31T06:28:43.104Z,7.00
2017-10-31T06:31:16.339Z,6.87
2017-10-31T06:33:43.922Z,6.63
2017-10-31T06:36:11.480Z,7.60
2017-10-31T06:38:39.043Z,4.93
2017-10-31T06:41:06.603Z,10.97
2017-10-31T06:43:34.106Z,5.47
2017-10-31T06:46:01.564Z,8.80
2017-10-31T06:48:29.084Z,8.00
2017-10-31T06:50:56.559Z,13.17
2017-10-31T06:53:24.812Z,4.70
2017-10-31T06:55:52.280Z,8.70
2017-10-31T06:58:19.789Z,8.00
2017-10-31T07:00:47.262Z,11.23
2017-10-31T07:03:15.419Z,5.27
2017-10-31T07:05:42.916Z,12.53
2017-10-31T07:08:10.537Z,5.33
2017-10-31T07:10:38.000Z,8.20
2017-10-31T07:13:05.491Z,12.67
2017-10-31T07:15:32.969Z,4.53
2017-10-31T07:18:00.511Z,6.70
2017-10-31T07:20:27.991Z,11.00
2017-10-31T07:22:56.225Z,8.80
2017-10-31T07:25:23.691Z,10.20
2017-10-31T07:27:51.162Z,4.80
2017-10-31T07:30:18.652Z,6.53
2017-10-31T07:32:46.879Z,5.10
2017-10-31T07:35:14.361Z,11.93
2017-10-31T07:37:41.810Z,6.70
2017-10-31T07:40:09.293Z,5.20
2017-10-31T07:42:36.748Z,7.33
2017-10-31T07:45:05.024Z,4.60
2017-10-31T07:47:33.262Z,7.83
2017-10-31T07:50:00.768Z,8.33
2017-10-31T07:52:29.031Z,4.93
2017-10-31T07:54:56.505Z,8.07
2017-10-31T07:57:24.755Z,4.10
2017-10-31T07:59:52.311Z,5.23
2017-10-31T08:02:20.283Z,10.23
2017-10-31T08:04:47.740Z,6.60
2017-10-31T08:07:15.233Z,6.03
2017-10-31T08:09:43.469Z,5.47
2017-10-31T08:12:10.939Z,9.37
2017-10-31T08:14:38.403Z,5.67
2017-10-31T08:17:07.380Z,6.57
2017-10-31T08:19:34.864Z,10.10
2017-10-31T08:22:02.332Z,6.53
2017-10-31T08:24:30.566Z,7.40
2017-10-31T08:26:58.047Z,6.40
2017-10-31T08:29:26.281Z,5.03
2017-10-31T08:31:53.760Z,6.80
2017-10-31T08:34:21.227Z,7.27
2017-10-31T08:36:48.686Z,4.40
2017-10-31T08:39:16.150Z,6.70
2017-10-31T08:41:43.699Z,5.93
2017-10-31T08:44:11.164Z,5.40
2017-10-31T08:46:38.647Z,6.77
2017-10-31T08:49:06.883Z,14.73
2017-10-31T08:51:34.358Z,9.70
2017-10-31T08:54:01.822Z,7.13
2017-10-31T08:56:29.371Z,4.43
2017-10-31T08:58:56.832Z,6.43
2017-10-31T09:01:24.291Z,5.57
2017-10-31T09:03:51.761Z,4.83
2017-10-31T09:06:19.222Z,8.03
2017-10-31T09:08:47.496Z,8.80
2017-10-31T09:11:14.979Z,11.43
2017-10-31T09:13:43.222Z,15.73
2017-10-31T09:16:10.699Z,7.80
2017-10-31T09:18:38.238Z,7.63
2017-10-31T09:21:05.698Z,8.17
2017-10-31T09:23:33.160Z,6.40
2017-10-31T09:26:00.615Z,6.77
2017-10-31T09:28:28.075Z,4.30
2017-10-31T09:30:55.551Z,4.13
2017-10-31T09:33:23.777Z,4.87
2017-10-31T09:35:51.238Z,13.03
2017-10-31T09:38:18.695Z,7.73
2017-10-31T09:40:46.163Z,5.23
2017-10-31T09:43:17.903Z,7.80
2017-10-31T09:45:45.447Z,11.03
2017-10-31T09:48:12.928Z,8.23
2017-10-31T09:50:40.397Z,5.63
2017-10-31T09:53:07.867Z,6.00
2017-10-31T09:55:35.386Z,4.47
2017-10-31T09:58:02.866Z,8.23
2017-10-31T10:00:30.378Z,8.20
2017-10-31T10:02:58.609Z,7.57
2017-10-31T10:05:26.100Z,8.40
2017-10-31T10:07:53.551Z,6.93
2017-10-31T10:10:21.019Z,8.50
2017-10-31T10:12:48.471Z,6.40
2017-10-31T10:15:15.934Z,4.13
2017-10-31T10:17:43.391Z,5.83
2017-10-31T10:20:11.623Z,6.13
2017-10-31T10:22:39.074Z,6.53
2017-10-31T10:25:06.527Z,8.13
2017-10-31T10:27:34.008Z,7.10
2017-10-31T10:30:01.469Z,4.37
2017-10-31T10:32:28.938Z,3.53
2017-10-31T10:34:56.401Z,3.77
2017-10-31T10:37:23.863Z,5.27
2017-10-31T10:39:51.347Z,6.30
2017-10-31T10:42:20.387Z,4.80
2017-10-31T10:44:47.856Z,3.53
2017-10-31T10:47:15.600Z,8.00
2017-10-31T10:49:43.060Z,6.90
2017-10-31T10:52:10.518Z,7.80
2017-10-31T10:54:38.008Z,4.03
2017-10-31T10:57:05.471Z,4.70
2017-10-31T10:59:33.714Z,9.57
2017-10-31T11:02:01.171Z,7.40
2017-10-31T11:04:28.637Z,9.50
2017-10-31T11:06:56.100Z,3.40
2017-10-31T11:09:23.559Z,5.00
2017-10-31T11:11:51.140Z,4.67
2017-10-31T11:14:19.380Z,9.17
2017-10-31T11:16:46.839Z,3.73
2017-10-31T11:19:14.307Z,5.30
2017-10-31T11:21:41.771Z,5.93
2017-10-31T11:24:09.245Z,6.20
2017-10-31T11:26:36.699Z,5.53
2017-10-31T11:29:04.180Z,4.43
2017-10-31T11:31:32.413Z,6.10
2017-10-31T11:33:59.890Z,5.07
2017-10-31T11:36:27.361Z,3.80
2017-10-31T11:38:55.600Z,5.87
2017-10-31T11:41:23.068Z,7.20
2017-10-31T11:43:50.559Z,7.80
2017-10-31T11:46:18.016Z,4.77
2017-10-31T11:48:45.494Z,6.20
2017-10-31T11:51:13.720Z,6.03
2017-10-31T11:53:41.211Z,8.33
2017-10-31T11:56:08.672Z,7.70
2017-10-31T11:58:36.144Z,7.57
2017-10-31T12:01:04.379Z,8.90
2017-10-31T12:03:31.848Z,8.50
2017-10-31T12:06:00.125Z,11.00
2017-10-31T12:08:27.636Z,8.90
2017-10-31T12:10:55.119Z,7.27
2017-10-31T12:13:22.589Z,6.57
2017-10-31T12:15:50.060Z,7.23
2017-10-31T12:18:19.044Z,9.40
2017-10-31T12:20:46.515Z,10.33
2017-10-31T12:23:15.530Z,6.07
2017-10-31T12:25:43.786Z,11.37
2017-10-31T12:28:11.247Z,6.60
2017-10-31T12:30:38.718Z,6.00
2017-10-31T12:33:06.951Z,9.50
2017-10-31T12:35:34.419Z,6.90
2017-10-31T12:38:01.888Z,10.33
2017-10-31T12:40:29.448Z,8.50
2017-10-31T12:42:57.011Z,12.60
2017-10-31T12:45:24.476Z,8.83
2017-10-31T12:47:51.932Z,8.00
2017-10-31T12:50:20.208Z,11.00
2017-10-31T12:52:47.671Z,10.70
2017-10-31T12:55:15.151Z,7.90
2017-10-31T12:57:43.381Z,7.57
2017-10-31T13:00:10.874Z,10.97
2017-10-31T13:02:40.039Z,9.67
2017-10-31T13:05:07.504Z,8.70
2017-10-31T13:07:34.990Z,8.43
2017-10-31T13:10:03.225Z,11.03
2017-10-31T13:12:30.688Z,8.13
2017-10-31T13:14:58.163Z,9.50
2017-10-31T13:17:32.448Z,12.30
2017-10-31T13:19:59.915Z,8.60
2017-10-31T13:22:27.395Z,10.03
2017-10-31T13:24:54.860Z,9.63
2017-10-31T13:27:22.768Z,10.20
2017-10-31T13:29:50.432Z,8.57
2017-10-31T13:32:18.405Z,9.90
2017-10-31T13:34:46.363Z,10.50
2017-10-31T13:37:15.061Z,8.43
2017-10-31T13:39:43.123Z,9.37
2017-10-31T13:42:11.821Z,9.33
2017-10-31T13:44:40.357Z,7.43
2017-10-31T13:47:08.998Z,10.97
2017-10-31T13:49:36.502Z,11.13
2017-10-31T13:52:04.414Z,10.00
2017-10-31T13:54:31.928Z,6.70
2017-10-31T13:57:00.182Z,8.30
2017-10-31T13:59:27.644Z,8.40
2017-10-31T14:01:55.347Z,7.90
2017-10-31T14:04:23.728Z,7.83
2017-10-31T14:06:52.584Z,7.00
2017-10-31T14:09:20.902Z,9.20
2017-10-31T14:14:42.153Z,6.63
2017-10-31T14:17:09.700Z,9.47
2017-10-31T14:19:38.215Z,10.13
2017-10-31T14:22:05.720Z,12.13
2017-10-31T14:24:33.188Z,10.70
2017-10-31T14:27:00.686Z,6.50
2017-10-31T14:29:28.148Z,8.97
2017-10-31T14:31:55.620Z,8.63
2017-10-31T14:34:23.079Z,6.33
2017-10-31T14:36:50.545Z,7.50
2017-10-31T14:39:18.005Z,8.33
2017-10-31T14:41:45.479Z,6.70
2017-10-31T14:44:12.987Z,7.50
2017-10-31T14:46:40.480Z,10.37
2017-10-31T14:49:07.947Z,7.60
2017-10-31T14:51:35.467Z,8.50
2017-10-31T14:54:02.928Z,9.40
2017-10-31T14:56:30.415Z,6.80
2017-10-31T14:58:57.904Z,9.30
2017-10-31T15:01:25.436Z,9.33
2017-10-31T15:03:52.952Z,6.37
2017-10-31T15:06:20.499Z,9.37
2017-10-31T15:08:48.081Z,7.53
2017-10-31T15:11:15.691Z,9.40
2017-10-31T15:13:43.176Z,10.83
2017-10-31T15:16:11.462Z,9.00
2017-10-31T15:18:38.975Z,8.33
2017-10-31T15:21:06.428Z,7.80
2017-10-31T15:23:33.895Z,6.53
2017-10-31T15:26:01.362Z,11.37
2017-10-31T15:28:28.828Z,6.37
2017-10-31T15:30:56.283Z,8.70
2017-10-31T15:33:23.755Z,11.10
2017-10-31T15:35:51.971Z,7.90
2017-10-31T15:38:19.443Z,6.90
2017-10-31T15:40:46.899Z,7.20
2017-10-31T15:43:14.387Z,7.70
2017-10-31T15:45:41.843Z,10.70
2017-10-31T15:48:09.331Z,9.57
2017-10-31T15:50:37.560Z,17.13
2017-10-31T15:53:05.016Z,5.03
2017-10-31T15:55:32.500Z,8.57
2017-10-31T15:58:00.032Z,5.43
2017-10-31T16:00:27.502Z,6.23
2017-10-31T16:02:54.959Z,14.17
2017-10-31T16:05:22.481Z,7.67
2017-10-31T16:07:49.950Z,5.47
2017-10-31T16:10:17.410Z,8.87
2017-10-31T16:12:44.872Z,7.83
2017-10-31T16:15:15.411Z,8.93
2017-10-31T16:17:42.883Z,9.13
2017-10-31T16:20:10.370Z,6.80
2017-10-31T16:22:38.589Z,8.03
2017-10-31T16:25:06.052Z,6.70
2017-10-31T16:27:33.514Z,6.73
2017-10-31T16:30:00.979Z,8.10
2017-10-31T16:32:28.432Z,9.03
2017-10-31T16:34:55.894Z,6.30
2017-10-31T16:37:23.351Z,9.43
2017-10-31T16:39:50.845Z,9.17
2017-10-31T16:42:18.299Z,6.00
2017-10-31T16:44:45.768Z,9.10
2017-10-31T16:47:13.986Z,10.30
2017-10-31T16:49:41.471Z,11.93
2017-10-31T16:52:08.934Z,12.37
2017-10-31T16:54:36.391Z,7.73
2017-10-31T16:57:03.848Z,9.90
2017-10-31T16:59:31.307Z,7.77
2017-10-31T17:01:58.780Z,7.37
2017-10-31T17:04:27.765Z,12.73
2017-10-31T17:06:55.322Z,10.17
2017-10-31T17:09:22.877Z,13.30
2017-10-31T17:11:50.349Z,12.43
2017-10-31T17:14:19.315Z,8.10
2017-10-31T17:16:46.899Z,10.70
2017-10-31T17:19:14.367Z,13.93
2017-10-31T17:21:41.827Z,10.33
2017-10-31T17:24:09.299Z,8.60
2017-10-31T17:26:37.528Z,10.13
2017-10-31T17:29:05.007Z,13.87
2017-10-31T17:31:32.564Z,10.07
2017-10-31T17:34:00.047Z,10.60
2017-10-31T17:36:27.512Z,19.20
2017-10-31T17:38:55.766Z,10.50
2017-10-31T17:41:23.246Z,12.00
2017-10-31T17:43:51.476Z,9.10
2017-10-31T17:46:19.225Z,14.93
2017-10-31T17:48:46.736Z,14.67
2017-10-31T17:51:14.995Z,14.67
2017-10-31T17:53:42.459Z,10.00
2017-10-31T17:56:11.431Z,11.30
2017-10-31T17:58:38.888Z,16.10
2017-10-31T18:01:06.347Z,10.93
2017-10-31T18:03:33.832Z,14.30
2017-10-31T18:06:02.056Z,16.07
2017-10-31T18:08:29.541Z,17.53
2017-10-31T18:10:56.992Z,13.03
2017-10-31T18:13:24.483Z,13.43
2017-10-31T18:15:52.725Z,17.57
2017-10-31T18:18:20.195Z,15.27
2017-10-31T18:20:47.659Z,21.10
2017-10-31T18:23:15.232Z,15.30
2017-10-31T18:25:42.688Z,15.93
2017-10-31T18:28:10.923Z,13.63
2017-10-31T18:30:38.391Z,13.97
2017-10-31T18:33:05.886Z,16.50
2017-10-31T18:35:34.118Z,17.67
2017-10-31T18:38:01.588Z,13.80
2017-10-31T18:40:29.051Z,14.10
2017-10-31T18:42:56.524Z,18.43
2017-10-31T18:45:23.982Z,11.43
2017-10-31T18:47:51.451Z,16.30
2017-10-31T18:50:18.907Z,13.03
2017-10-31T18:52:46.379Z,16.93
2017-10-31T18:55:14.611Z,19.03
2017-10-31T18:57:42.093Z,12.07
2017-10-31T19:00:09.672Z,13.73
2017-10-31T19:02:37.927Z,12.90
2017-10-31T19:05:05.397Z,14.50
2017-10-31T19:07:32.863Z,15.70
2017-10-31T19:10:01.086Z,13.23
2017-10-31T19:12:28.558Z,15.70
2017-10-31T19:14:56.143Z,14.83
2017-10-31T19:17:23.610Z,18.07
2017-10-31T19:19:51.082Z,17.53
2017-10-31T19:22:19.760Z,20.30
2017-10-31T19:24:47.224Z,14.20
2017-10-31T19:27:15.476Z,17.00
2017-10-31T19:29:43.045Z,12.00
2017-10-31T19:32:11.278Z,17.90
2017-10-31T19:34:38.756Z,22.80
2017-10-31T19:37:06.220Z,13.53
2017-10-31T19:39:33.709Z,15.70
2017-10-31T19:42:01.170Z,10.67
2017-10-31T19:44:29.442Z,15.33
2017-10-31T19:46:56.901Z,11.17
2017-10-31T19:49:25.147Z,12.20
2017-10-31T19:51:52.604Z,10.47
2017-10-31T19:54:20.105Z,11.30
2017-10-31T19:56:48.323Z,12.80
2017-10-31T19:59:15.819Z,19.77
2017-10-31T20:01:44.295Z,12.17
2017-10-31T20:04:11.872Z,16.87
2017-10-31T20:06:40.108Z,23.37
2017-10-31T20:09:07.584Z,19.60
2017-10-31T20:11:35.071Z,16.90
2017-10-31T20:14:03.308Z,18.43
2017-10-31T20:16:31.608Z,20.43
2017-10-31T20:18:59.850Z,21.03
2017-10-31T20:21:27.341Z,21.73
2017-10-31T20:23:54.820Z,19.83
2017-10-31T20:26:23.076Z,16.43
2017-10-31T20:28:51.383Z,16.80
2017-10-31T20:31:19.627Z,17.60
2017-10-31T20:33:47.086Z,15.03
2017-10-31T20:36:15.357Z,15.00
2017-10-31T20:38:43.184Z,17.00
2017-10-31T20:41:10.691Z,18.57
2017-10-31T20:43:38.244Z,16.33
2017-10-31T20:46:05.711Z,20.83
2017-10-31T20:48:33.199Z,22.43
2017-10-31T20:51:00.668Z,20.47
2017-10-31T20:53:28.269Z,17.50
2017-10-31T20:55:55.739Z,26.30
2017-10-31T20:58:23.294Z,17.43
2017-10-31T21:00:50.766Z,20.63
2017-10-31T21:03:18.227Z,22.80
2017-10-31T21:05:45.712Z,19.80
2017-10-31T21:08:13.945Z,19.33
2017-10-31T21:10:41.412Z,21.30
2017-10-31T21:13:08.891Z,20.20
2017-10-31T21:15:37.131Z,22.20
2017-10-31T21:18:04.605Z,20.87
2017-10-31T21:20:32.071Z,20.17
2017-10-31T21:23:01.038Z,17.33
2017-10-31T21:25:28.495Z,16.50
2017-10-31T21:27:56.000Z,18.80
2017-10-31T21:30:24.252Z,19.60
2017-10-31T21:32:51.728Z,24.07
2017-10-31T21:35:19.966Z,26.47
2017-10-31T21:37:48.972Z,18.07
2017-10-31T21:40:16.432Z,19.17
2017-10-31T21:42:43.925Z,20.70
2017-10-31T21:45:12.167Z,22.70
2017-10-31T21:47:39.656Z,18.73
2017-10-31T21:50:07.885Z,17.43
2017-10-31T21:52:35.344Z,17.13
2017-10-31T21:55:02.824Z,21.00
2017-10-31T21:57:31.807Z,19.73
2017-10-31T22:00:00.060Z,20.47
2017-10-31T22:02:27.515Z,15.43
2017-10-31T22:04:54.987Z,18.03
2017-10-31T22:07:22.501Z,17.03
2017-10-31T22:09:50.752Z,20.77
2017-10-31T22:12:18.216Z,17.07
2017-10-31T22:14:46.456Z,14.93
2017-10-31T22:17:15.302Z,18.57
2017-10-31T22:19:43.539Z,15.00
2017-10-31T22:22:11.040Z,14.13
2017-10-31T22:24:38.516Z,14.40
2017-10-31T22:27:06.159Z,16.40
2017-10-31T22:29:34.447Z,17.17
2017-10-31T22:32:01.960Z,14.63
2017-10-31T22:34:29.435Z,17.83
2017-10-31T22:36:57.668Z,19.83
2017-10-31T22:39:25.130Z,13.67
2017-10-31T22:41:52.604Z,14.23
2017-10-31T22:44:20.152Z,15.33
2017-10-31T22:46:47.614Z,15.57
2017-10-31T22:49:15.103Z,13.60
2017-10-31T22:51:43.482Z,18.33
2017-10-31T22:54:11.713Z,17.50
2017-10-31T22:56:39.207Z,13.10
2017-10-31T22:59:07.438Z,19.50
2017-10-31T23:01:34.922Z,13.37
2017-10-31T23:04:02.375Z,14.43
2017-10-31T23:06:29.855Z,12.60
2017-10-31T23:08:57.323Z,15.77
2017-10-31T23:11:25.603Z,13.73
2017-10-31T23:13:53.878Z,15.03
2017-10-31T23:16:21.352Z,14.33
2017-10-31T23:18:49.591Z,12.57
2017-10-31T23:21:17.058Z,12.03
2017-10-31T23:23:46.023Z,9.77
2017-10-31T23:26:13.497Z,11.67
2017-10-31T23:28:40.959Z,9.53
2017-10-31T23:31:08.520Z,14.43
2017-10-31T23:33:36.276Z,10.63
2017-10-31T23:36:03.843Z,9.63
2017-10-31T23:38:31.300Z,8.90
2017-10-31T23:40:58.759Z,11.33
2017-10-31T23:43:26.324Z,9.20
2017-10-31T23:45:53.810Z,10.40
2017-10-31T23:48:22.039Z,10.87
2017-10-31T23:50:49.519Z,9.60
2017-10-31T23:53:17.423Z,14.17
2017-10-31T23:55:45.657Z,8.60
2017-10-31T23:58:13.118Z,10.27
